Time,TemperatureF,DewpointF,PressureIn,WindDirection,WindDirectionDegrees,WindSpeedMPH,WindSpeedGustMPH,Humidity,HourlyPrecipIn,Conditions,Clouds,dailyrainin,SoftwareType,DateUTC
2013-02-03 00:00:00,59.0,50.0,30.08,WNW,299,0.0,0.0,72,0.00,,---,0.00,VWS V12.07,2013-02-03 08:00:00,
2013-02-03 00:05:00,59.0,50.0,30.08,WNW,299,0.0,0.0,72,0.00,,---,0.00,VWS V12.07,2013-02-03 08:05:00,
2013-02-03 00:10:00,59.0,50.4,30.08,WNW,299,0.0,0.0,73,0.00,,---,0.00,VWS V12.07,2013-02-03 08:10:00,
2013-02-03 00:15:00,58.9,50.3,30.08,WNW,299,0.0,0.0,73,0.00,,---,0.00,VWS V12.07,2013-02-03 08:15:00,
2013-02-03 00:25:00,58.9,50.3,30.07,WNW,299,0.0,0.0,73,0.00,,---,0.00,VWS V12.07,2013-02-03 08:25:00,
2013-02-03 00:30:00,58.7,50.1,30.07,WNW,299,0.0,0.0,73,0.00,,---,0.00,VWS V12.07,2013-02-03 08:30:00,
2013-02-03 00:35:00,58.7,50.1,30.07,WNW,299,0.0,0.0,73,0.00,,---,0.00,VWS V12.07,2013-02-03 08:35:00,
2013-02-03 00:40:00,58.7,50.1,30.07,WNW,299,0.0,0.0,73,0.00,,---,0.00,VWS V12.07,2013-02-03 08:40:00,
2013-02-03 00:45:00,58.6,50.0,30.07,WNW,299,0.0,0.0,73,0.00,,---,0.00,VWS V12.07,2013-02-03 08:45:00,
2013-02-03 00:50:00,58.6,50.3,30.07,WNW,299,0.0,0.0,74,0.00,,---,0.00,VWS V12.07,2013-02-03 08:50:00,
2013-02-03 00:55:00,58.6,50.3,30.08,WNW,299,0.0,0.0,74,0.00,,---,0.00,VWS V12.07,2013-02-03 08:55:00,
2013-02-03 01:05:00,58.6,50.7,30.08,WNW,299,0.0,0.0,75,0.00,,---,0.00,VWS V12.07,2013-02-03 09:05:00,
2013-02-03 01:10:00,58.6,50.7,30.08,WNW,299,0.0,0.0,75,0.00,,---,0.00,VWS V12.07,2013-02-03 09:10:00,
2013-02-03 01:15:00,58.6,50.7,30.08,WNW,299,0.0,0.0,75,0.00,,---,0.00,VWS V12.07,2013-02-03 09:15:00,
2013-02-03 01:20:00,58.6,51.1,30.08,WNW,299,0.0,0.0,76,0.00,,---,0.00,VWS V12.07,2013-02-03 09:20:00,
2013-02-03 01:25:00,58.6,51.1,30.08,WNW,299,0.0,0.0,76,0.00,,---,0.00,VWS V12.07,2013-02-03 09:25:00,
2013-02-03 01:30:00,58.6,51.4,30.08,WNW,299,0.0,1.0,77,0.00,,---,0.00,VWS V12.07,2013-02-03 09:30:00,
2013-02-03 01:35:00,58.4,51.2,30.08,WNW,299,0.0,0.0,77,0.00,,---,0.00,VWS V12.07,2013-02-03 09:35:00,
2013-02-03 01:45:00,58.3,51.1,30.07,WNW,299,0.0,0.0,77,0.00,,---,0.00,VWS V12.07,2013-02-03 09:45:00,
2013-02-03 01:55:00,58.1,50.9,30.07,WNW,299,0.0,0.0,77,0.00,,---,0.00,VWS V12.07,2013-02-03 09:55:00,
2013-02-03 02:00:00,58.1,51.3,30.07,WNW,299,0.0,0.0,78,0.00,,---,0.00,VWS V12.07,2013-02-03 10:00:00,
2013-02-03 02:05:00,58.1,51.3,30.07,WNW,299,0.0,0.0,78,0.00,,---,0.00,VWS V12.07,2013-02-03 10:05:00,
2013-02-03 02:15:00,58.0,51.2,30.06,WNW,299,0.0,0.0,78,0.00,,---,0.00,VWS V12.07,2013-02-03 10:15:00,
2013-02-03 02:20:00,57.8,51.0,30.06,WNW,299,0.0,0.0,78,0.00,,---,0.00,VWS V12.07,2013-02-03 10:20:00,
2013-02-03 02:25:00,57.8,51.3,30.06,WNW,299,0.0,0.0,79,0.00,,---,0.00,VWS V12.07,2013-02-03 10:25:00,
2013-02-03 02:30:00,57.8,51.3,30.06,WNW,299,0.0,0.0,79,0.00,,---,0.00,VWS V12.07,2013-02-03 10:30:00,
2013-02-03 02:35:00,57.8,51.3,30.06,WNW,299,0.0,0.0,79,0.00,,---,0.00,VWS V12.07,2013-02-03 10:35:00,
2013-02-03 02:40:00,57.8,51.3,30.06,WNW,299,0.0,0.0,79,0.00,,---,0.00,VWS V12.07,2013-02-03 10:40:00,
2013-02-03 02:45:00,57.8,51.3,30.06,WNW,299,0.0,0.0,79,0.00,,---,0.00,VWS V12.07,2013-02-03 10:45:00,
2013-02-03 02:50:00,57.6,51.1,30.06,WNW,299,0.0,0.0,79,0.00,,---,0.00,VWS V12.07,2013-02-03 10:50:00,
2013-02-03 03:00:00,57.5,51.4,30.06,WNW,299,0.0,0.0,80,0.00,,---,0.00,VWS V12.07,2013-02-03 11:00:00,
2013-02-03 03:05:00,57.6,51.5,30.06,WNW,299,0.0,1.0,80,0.00,,---,0.00,VWS V12.07,2013-02-03 11:05:00,
2013-02-03 03:10:00,57.6,51.5,30.05,WNW,299,0.0,1.0,80,0.00,,---,0.00,VWS V12.07,2013-02-03 11:10:00,
2013-02-03 03:15:00,57.5,51.4,30.05,WNW,299,0.0,0.0,80,0.00,,---,0.00,VWS V12.07,2013-02-03 11:15:00,
2013-02-03 03:25:00,57.2,51.1,30.05,East,94,0.0,0.0,80,0.00,,---,0.00,VWS V12.07,2013-02-03 11:25:00,
2013-02-03 03:35:00,57.0,50.9,30.05,East,94,0.0,0.0,80,0.00,,---,0.00,VWS V12.07,2013-02-03 11:35:00,
2013-02-03 03:40:00,57.0,50.6,30.05,East,95,2.0,4.0,79,0.00,,---,0.00,VWS V12.07,2013-02-03 11:40:00,
2013-02-03 03:45:00,57.0,50.6,30.05,ESE,109,0.0,3.0,79,0.00,,---,0.00,VWS V12.07,2013-02-03 11:45:00,
2013-02-03 03:50:00,57.3,50.5,30.05,ESE,119,1.0,5.0,78,0.00,,---,0.00,VWS V12.07,2013-02-03 11:50:00,
2013-02-03 03:55:00,57.3,50.2,30.04,ESE,121,5.0,8.0,77,0.00,,---,0.00,VWS V12.07,2013-02-03 11:55:00,
2013-02-03 04:05:00,58.6,50.0,30.04,ESE,114,1.0,3.0,73,0.00,,---,0.00,VWS V12.07,2013-02-03 12:05:00,
2013-02-03 04:10:00,58.9,49.5,30.03,ESE,103,2.0,2.0,71,0.00,,---,0.00,VWS V12.07,2013-02-03 12:10:00,
2013-02-03 04:15:00,59.2,49.0,30.03,ESE,109,4.0,7.0,69,0.00,,---,0.00,VWS V12.07,2013-02-03 12:15:00,
2013-02-03 04:20:00,59.6,48.6,30.03,East,100,1.0,4.0,67,0.00,,---,0.00,VWS V12.07,2013-02-03 12:20:00,
2013-02-03 04:25:00,59.9,48.1,30.03,East,101,0.0,6.0,65,0.00,,---,0.00,VWS V12.07,2013-02-03 12:25:00,
2013-02-03 04:30:00,60.2,48.4,30.03,East,101,0.0,1.0,65,0.00,,---,0.00,VWS V12.07,2013-02-03 12:30:00,
2013-02-03 04:35:00,60.4,48.2,30.03,East,101,0.0,1.0,64,0.00,,---,0.00,VWS V12.07,2013-02-03 12:35:00,
2013-02-03 04:45:00,60.7,48.5,30.03,East,101,0.0,0.0,64,0.00,,---,0.00,VWS V12.07,2013-02-03 12:45:00,
2013-02-03 04:55:00,60.5,48.3,30.03,East,101,0.0,0.0,64,0.00,,---,0.00,VWS V12.07,2013-02-03 12:55:00,
2013-02-03 05:05:00,60.2,48.0,30.03,East,101,0.0,0.0,64,0.00,,---,0.00,VWS V12.07,2013-02-03 13:05:00,
2013-02-03 05:10:00,60.1,47.9,30.03,East,101,0.0,0.0,64,0.00,,---,0.00,VWS V12.07,2013-02-03 13:10:00,
2013-02-03 05:15:00,59.9,48.1,30.03,East,101,1.0,1.0,65,0.00,,---,0.00,VWS V12.07,2013-02-03 13:15:00,
2013-02-03 05:20:00,59.6,47.8,30.03,NW,319,2.0,3.0,65,0.00,,---,0.00,VWS V12.07,2013-02-03 13:20:00,
2013-02-03 05:25:00,59.5,47.7,30.03,NW,319,0.0,1.0,65,0.00,,---,0.00,VWS V12.07,2013-02-03 13:25:00,
2013-02-03 05:30:00,59.3,48.0,30.03,NW,319,0.0,0.0,66,0.00,,---,0.00,VWS V12.07,2013-02-03 13:30:00,
2013-02-03 05:40:00,59.0,48.1,30.03,NW,319,0.0,1.0,67,0.00,,---,0.00,VWS V12.07,2013-02-03 13:40:00,
2013-02-03 05:45:00,58.9,48.0,30.03,NW,319,0.0,0.0,67,0.00,,---,0.00,VWS V12.07,2013-02-03 13:45:00,
2013-02-03 05:50:00,58.7,47.8,30.03,NW,319,0.0,0.0,67,0.00,,---,0.00,VWS V12.07,2013-02-03 13:50:00,
2013-02-03 05:55:00,58.4,47.5,30.03,NW,319,0.0,0.0,67,0.00,,---,0.00,VWS V12.07,2013-02-03 13:55:00,
2013-02-03 06:00:00,58.3,47.4,30.03,NW,319,0.0,0.0,67,0.00,,---,0.00,VWS V12.07,2013-02-03 14:00:00,
2013-02-03 06:05:00,58.0,47.5,30.03,NW,319,0.0,0.0,68,0.00,,---,0.00,VWS V12.07,2013-02-03 14:05:00,
2013-02-03 06:15:00,57.3,47.2,30.03,NW,319,0.0,0.0,69,0.00,,---,0.00,VWS V12.07,2013-02-03 14:15:00,
2013-02-03 06:20:00,57.2,47.1,30.03,NW,319,0.0,0.0,69,0.00,,---,0.00,VWS V12.07,2013-02-03 14:20:00,
2013-02-03 06:25:00,56.9,46.8,30.04,NW,319,0.0,0.0,69,0.00,,---,0.00,VWS V12.07,2013-02-03 14:25:00,
2013-02-03 06:30:00,56.7,47.0,30.04,NW,319,0.0,0.0,70,0.00,,---,0.00,VWS V12.07,2013-02-03 14:30:00,
2013-02-03 06:35:00,56.5,46.8,30.04,NW,319,0.0,0.0,70,0.00,,---,0.00,VWS V12.07,2013-02-03 14:35:00,
2013-02-03 06:45:00,55.9,46.3,30.04,NW,319,0.0,0.0,70,0.00,,---,0.00,VWS V12.07,2013-02-03 14:45:00,
2013-02-03 06:50:00,55.6,46.0,30.04,NW,319,0.0,0.0,70,0.00,,---,0.00,VWS V12.07,2013-02-03 14:50:00,
2013-02-03 06:55:00,55.4,46.2,30.05,NW,319,0.0,0.0,71,0.00,,---,0.00,VWS V12.07,2013-02-03 14:55:00,
2013-02-03 07:00:00,55.1,46.2,30.05,NW,319,0.0,0.0,72,0.00,,---,0.00,VWS V12.07,2013-02-03 15:00:00,
2013-02-03 07:10:00,54.8,46.3,30.05,NW,319,0.0,0.0,73,0.00,,---,0.00,VWS V12.07,2013-02-03 15:10:00,
2013-02-03 07:15:00,54.7,46.2,30.05,NW,319,0.0,0.0,73,0.00,,---,0.00,VWS V12.07,2013-02-03 15:15:00,
2013-02-03 07:20:00,54.4,46.3,30.05,NW,319,0.0,0.0,74,0.00,,---,0.00,VWS V12.07,2013-02-03 15:20:00,
2013-02-03 07:25:00,54.2,46.1,30.05,NW,319,0.0,0.0,74,0.00,,---,0.00,VWS V12.07,2013-02-03 15:25:00,
2013-02-03 07:30:00,54.1,46.0,30.05,NW,319,0.0,1.0,74,0.00,,---,0.00,VWS V12.07,2013-02-03 15:30:00,
2013-02-03 07:35:00,53.9,46.2,30.05,NW,319,0.0,0.0,75,0.00,,---,0.00,VWS V12.07,2013-02-03 15:35:00,
2013-02-03 07:45:00,53.6,45.9,30.05,NW,319,0.0,0.0,75,0.00,,---,0.00,VWS V12.07,2013-02-03 15:45:00,
2013-02-03 07:50:00,53.5,46.1,30.05,NW,319,0.0,1.0,76,0.00,,---,0.00,VWS V12.07,2013-02-03 15:50:00,
2013-02-03 08:00:00,53.5,46.1,30.05,NW,319,0.0,0.0,76,0.00,,---,0.00,VWS V12.07,2013-02-03 16:00:00,
2013-02-03 08:05:00,53.6,46.6,30.05,NW,319,0.0,0.0,77,0.00,,---,0.00,VWS V12.07,2013-02-03 16:05:00,
2013-02-03 08:15:00,55.0,47.9,30.05,NW,319,0.0,1.0,77,0.00,,---,0.00,VWS V12.07,2013-02-03 16:15:00,
2013-02-03 08:20:00,55.6,48.2,30.05,NW,319,0.0,0.0,76,0.00,,---,0.00,VWS V12.07,2013-02-03 16:20:00,
2013-02-03 08:25:00,55.9,48.1,30.05,NW,319,0.0,0.0,75,0.00,,---,0.00,VWS V12.07,2013-02-03 16:25:00,
2013-02-03 08:35:00,56.9,48.7,30.05,NW,319,0.0,0.0,74,0.00,,---,0.00,VWS V12.07,2013-02-03 16:35:00,
2013-02-03 08:45:00,58.4,49.4,30.06,NW,319,0.0,0.0,72,0.00,,---,0.00,VWS V12.07,2013-02-03 16:45:00,
2013-02-03 08:55:00,60.9,48.7,30.05,NW,319,0.0,1.0,64,0.00,,---,0.00,VWS V12.07,2013-02-03 16:55:00,
2013-02-03 09:05:00,62.9,48.8,30.05,NW,319,0.0,0.0,60,0.00,,---,0.00,VWS V12.07,2013-02-03 17:05:00,
2013-02-03 09:10:00,64.7,49.6,30.05,NW,319,1.0,1.0,58,0.00,,---,0.00,VWS V12.07,2013-02-03 17:10:00,
2013-02-03 09:20:00,66.4,49.3,30.05,NW,319,0.0,0.0,54,0.00,,---,0.00,VWS V12.07,2013-02-03 17:20:00,
2013-02-03 09:25:00,66.9,49.2,30.04,NW,319,0.0,1.0,53,0.00,,---,0.00,VWS V12.07,2013-02-03 17:25:00,
2013-02-03 09:30:00,67.4,48.1,30.04,SSW,213,0.0,4.0,50,0.00,,---,0.00,VWS V12.07,2013-02-03 17:30:00,
2013-02-03 09:35:00,68.3,49.0,30.04,SSW,213,0.0,4.0,50,0.00,,---,0.00,VWS V12.07,2013-02-03 17:35:00,
2013-02-03 09:40:00,68.8,48.3,30.04,SSW,213,0.0,2.0,48,0.00,,---,0.00,VWS V12.07,2013-02-03 17:40:00,
2013-02-03 09:50:00,69.6,48.5,30.04,SSW,213,1.0,2.0,47,0.00,,---,0.00,VWS V12.07,2013-02-03 17:50:00,
2013-02-03 09:55:00,69.6,47.9,30.04,SW,235,1.0,4.0,46,0.00,,---,0.00,VWS V12.07,2013-02-03 17:55:00,
2013-02-03 10:00:00,69.4,46.0,30.04,WNW,285,1.0,5.0,43,0.00,,---,0.00,VWS V12.07,2013-02-03 18:00:00,
2013-02-03 10:05:00,69.8,46.9,30.04,SW,225,1.0,3.0,44,0.00,,---,0.00,VWS V12.07,2013-02-03 18:05:00,
2013-02-03 10:10:00,69.8,46.3,30.04,WSW,242,2.0,6.0,43,0.00,,---,0.00,VWS V12.07,2013-02-03 18:10:00,
2013-02-03 10:20:00,68.9,46.1,30.04,West,281,1.0,2.0,44,0.00,,---,0.00,VWS V12.07,2013-02-03 18:20:00,
2013-02-03 10:30:00,69.4,45.3,30.04,WNW,298,3.0,7.0,42,0.00,,---,0.00,VWS V12.07,2013-02-03 18:30:00,
2013-02-03 10:35:00,69.6,45.5,30.04,NW,306,2.0,6.0,42,0.00,,---,0.00,VWS V12.07,2013-02-03 18:35:00,
2013-02-03 10:40:00,69.9,45.8,30.04,WSW,242,2.0,2.0,42,0.00,,---,0.00,VWS V12.07,2013-02-03 18:40:00,
2013-02-03 10:45:00,69.4,46.0,30.04,West,279,0.0,5.0,43,0.00,,---,0.00,VWS V12.07,2013-02-03 18:45:00,
2013-02-03 10:50:00,69.1,45.1,30.04,WNW,302,4.0,5.0,42,0.00,,---,0.00,VWS V12.07,2013-02-03 18:50:00,
2013-02-03 10:55:00,69.4,46.6,30.04,WSW,248,3.0,4.0,44,0.00,,---,0.00,VWS V12.07,2013-02-03 18:55:00,
2013-02-03 11:00:00,69.4,47.2,30.04,West,263,4.0,5.0,45,0.00,,---,0.00,VWS V12.07,2013-02-03 19:00:00,
2013-02-03 11:05:00,69.4,47.7,30.04,West,275,0.0,4.0,46,0.00,,---,0.00,VWS V12.07,2013-02-03 19:05:00,
2013-02-03 11:10:00,69.4,48.3,30.03,WSW,254,5.0,8.0,47,0.00,,---,0.00,VWS V12.07,2013-02-03 19:10:00,
2013-02-03 11:15:00,69.1,47.5,30.03,WNW,298,1.0,7.0,46,0.00,,---,0.00,VWS V12.07,2013-02-03 19:15:00,
2013-02-03 11:25:00,69.3,48.2,30.02,West,278,5.0,5.0,47,0.00,,---,0.00,VWS V12.07,2013-02-03 19:25:00,
2013-02-03 11:30:00,68.8,48.3,30.02,NW,304,6.0,6.0,48,0.00,,---,0.00,VWS V12.07,2013-02-03 19:30:00,
2013-02-03 11:35:00,68.8,48.9,30.02,NW,325,4.0,7.0,49,0.00,,---,0.00,VWS V12.07,2013-02-03 19:35:00,
2013-02-03 11:45:00,69.1,48.6,30.02,WNW,302,4.0,6.0,48,0.00,,---,0.00,VWS V12.07,2013-02-03 19:45:00,
2013-02-03 11:50:00,69.6,50.2,30.02,West,267,8.0,8.0,50,0.00,,---,0.00,VWS V12.07,2013-02-03 19:50:00,
2013-02-03 11:55:00,69.3,49.3,30.01,SW,232,4.0,7.0,49,0.00,,---,0.00,VWS V12.07,2013-02-03 19:55:00,
2013-02-03 12:00:00,69.4,48.9,30.01,West,261,0.0,7.0,48,0.00,,---,0.00,VWS V12.07,2013-02-03 20:00:00,
2013-02-03 12:05:00,69.9,48.8,30.01,West,269,1.0,5.0,47,0.00,,---,0.00,VWS V12.07,2013-02-03 20:05:00,
2013-02-03 12:10:00,70.1,48.4,30.00,WSW,252,1.0,6.0,46,0.00,,---,0.00,VWS V12.07,2013-02-03 20:10:00,
2013-02-03 12:15:00,70.3,48.6,30.00,SW,227,3.0,5.0,46,0.00,,---,0.00,VWS V12.07,2013-02-03 20:15:00,
2013-02-03 12:25:00,70.3,48.0,29.99,WSW,252,2.0,6.0,45,0.00,,---,0.00,VWS V12.07,2013-02-03 20:25:00,
2013-02-03 12:30:00,69.6,47.9,29.99,WSW,246,1.0,5.0,46,0.00,,---,0.00,VWS V12.07,2013-02-03 20:30:00,
2013-02-03 12:35:00,70.3,48.6,29.99,SW,232,2.0,5.0,46,0.00,,---,0.00,VWS V12.07,2013-02-03 20:35:00,
2013-02-03 12:45:00,70.3,48.6,29.99,SW,228,1.0,6.0,46,0.00,,---,0.00,VWS V12.07,2013-02-03 20:45:00,
2013-02-03 12:50:00,70.6,48.8,29.99,WSW,252,5.0,6.0,46,0.00,,---,0.00,VWS V12.07,2013-02-03 20:50:00,
2013-02-03 12:55:00,70.4,48.1,29.98,West,263,0.0,7.0,45,0.00,,---,0.00,VWS V12.07,2013-02-03 20:55:00,
2013-02-03 13:00:00,69.8,48.1,29.98,WSW,243,0.0,8.0,46,0.00,,---,0.00,VWS V12.07,2013-02-03 21:00:00,
2013-02-03 13:10:00,69.6,47.9,29.97,West,259,5.0,10.0,46,0.00,,---,0.00,VWS V12.07,2013-02-03 21:10:00,
2013-02-03 13:15:00,68.9,47.9,29.97,West,267,2.0,8.0,47,0.00,,---,0.00,VWS V12.07,2013-02-03 21:15:00,
2013-02-03 13:25:00,69.1,48.0,29.97,WSW,247,3.0,6.0,47,0.00,,---,0.00,VWS V12.07,2013-02-03 21:25:00,
2013-02-03 13:30:00,68.8,47.8,29.97,WSW,254,6.0,7.0,47,0.00,,---,0.00,VWS V12.07,2013-02-03 21:30:00,
2013-02-03 13:40:00,68.3,47.3,29.97,West,274,1.0,5.0,47,0.00,,---,0.00,VWS V12.07,2013-02-03 21:40:00,
2013-02-03 13:50:00,68.8,46.6,29.97,West,263,6.0,7.0,45,0.00,,---,0.00,VWS V12.07,2013-02-03 21:50:00,
2013-02-03 13:55:00,68.8,46.6,29.96,West,277,2.0,6.0,45,0.00,,---,0.00,VWS V12.07,2013-02-03 21:55:00,
2013-02-03 14:00:00,68.6,47.0,29.96,WSW,254,1.0,6.0,46,0.00,,---,0.00,VWS V12.07,2013-02-03 22:00:00,
2013-02-03 14:05:00,68.6,47.0,29.96,West,271,1.0,5.0,46,0.00,,---,0.00,VWS V12.07,2013-02-03 22:05:00,
2013-02-03 14:10:00,69.1,47.5,29.96,SW,234,4.0,6.0,46,0.00,,---,0.00,VWS V12.07,2013-02-03 22:10:00,
2013-02-03 14:15:00,68.9,47.3,29.96,West,265,0.0,5.0,46,0.00,,---,0.00,VWS V12.07,2013-02-03 22:15:00,
2013-02-03 14:25:00,68.8,47.2,29.96,WSW,248,0.0,6.0,46,0.00,,---,0.00,VWS V12.07,2013-02-03 22:25:00,
2013-02-03 14:35:00,67.9,47.5,29.96,West,265,0.0,7.0,48,0.00,,---,0.00,VWS V12.07,2013-02-03 22:35:00,
2013-02-03 14:40:00,67.6,47.2,29.96,WSW,244,2.0,7.0,48,0.00,,---,0.00,VWS V12.07,2013-02-03 22:40:00,
2013-02-03 14:45:00,67.4,47.0,29.96,WSW,256,1.0,6.0,48,0.00,,---,0.00,VWS V12.07,2013-02-03 22:45:00,
2013-02-03 14:55:00,67.8,47.4,29.96,SW,234,0.0,4.0,48,0.00,,---,0.00,VWS V12.07,2013-02-03 22:55:00,
2013-02-03 15:00:00,67.9,47.5,29.96,SW,234,4.0,5.0,48,0.00,,---,0.00,VWS V12.07,2013-02-03 23:00:00,
2013-02-03 15:05:00,67.8,46.9,29.96,WSW,252,2.0,6.0,47,0.00,,---,0.00,VWS V12.07,2013-02-03 23:05:00,
2013-02-03 15:10:00,67.8,46.3,29.97,WSW,258,0.0,5.0,46,0.00,,---,0.00,VWS V12.07,2013-02-03 23:10:00,
2013-02-03 15:15:00,67.9,46.4,29.97,WSW,258,0.0,2.0,46,0.00,,---,0.00,VWS V12.07,2013-02-03 23:15:00,
2013-02-03 15:25:00,68.1,46.6,29.97,SW,228,0.0,2.0,46,0.00,,---,0.00,VWS V12.07,2013-02-03 23:25:00,
2013-02-03 15:30:00,67.9,45.2,29.97,West,259,0.0,6.0,44,0.00,,---,0.00,VWS V12.07,2013-02-03 23:30:00,
2013-02-03 15:35:00,67.8,45.1,29.97,SW,234,1.0,5.0,44,0.00,,---,0.00,VWS V12.07,2013-02-03 23:35:00,
2013-02-03 15:45:00,67.8,45.1,29.96,SW,235,2.0,3.0,44,0.00,,---,0.00,VWS V12.07,2013-02-03 23:45:00,
2013-02-03 15:50:00,67.6,44.3,29.96,SW,235,0.0,3.0,43,0.00,,---,0.00,VWS V12.07,2013-02-03 23:50:00,
2013-02-03 16:00:00,67.4,44.2,29.96,WSW,242,1.0,3.0,43,0.00,,---,0.00,VWS V12.07,2013-02-04 00:00:00,
2013-02-03 16:10:00,67.3,44.1,29.96,WSW,242,0.0,4.0,43,0.00,,---,0.00,VWS V12.07,2013-02-04 00:10:00,
2013-02-03 16:15:00,67.1,43.9,29.96,WSW,242,0.0,0.0,43,0.00,,---,0.00,VWS V12.07,2013-02-04 00:15:00,
2013-02-03 16:20:00,66.9,43.7,29.96,WSW,242,0.0,1.0,43,0.00,,---,0.00,VWS V12.07,2013-02-04 00:20:00,
2013-02-03 16:25:00,66.9,43.7,29.97,WSW,242,0.0,1.0,43,0.00,,---,0.00,VWS V12.07,2013-02-04 00:25:00,
2013-02-03 16:30:00,66.8,44.2,29.97,WSW,242,0.0,2.0,44,0.00,,---,0.00,VWS V12.07,2013-02-04 00:30:00,
2013-02-03 16:35:00,66.8,44.2,29.97,WSW,242,0.0,1.0,44,0.00,,---,0.00,VWS V12.07,2013-02-04 00:35:00,
2013-02-03 16:40:00,66.6,44.6,29.97,WSW,242,0.0,0.0,45,0.00,,---,0.00,VWS V12.07,2013-02-04 00:40:00,
2013-02-03 16:45:00,66.4,44.4,29.97,WSW,242,0.0,1.0,45,0.00,,---,0.00,VWS V12.07,2013-02-04 00:45:00,
2013-02-03 16:50:00,66.3,44.9,29.97,WSW,242,0.0,1.0,46,0.00,,---,0.00,VWS V12.07,2013-02-04 00:50:00,
2013-02-03 17:00:00,66.0,45.2,29.96,WSW,242,0.0,0.0,47,0.00,,---,0.00,VWS V12.07,2013-02-04 01:00:00,
2013-02-03 17:05:00,65.8,45.0,29.96,WSW,242,0.0,0.0,47,0.00,,---,0.00,VWS V12.07,2013-02-04 01:05:00,
2013-02-03 17:10:00,65.6,45.4,29.97,WSW,242,0.0,0.0,48,0.00,,---,0.00,VWS V12.07,2013-02-04 01:10:00,
2013-02-03 17:20:00,65.2,46.1,29.97,WSW,242,0.0,0.0,50,0.00,,---,0.00,VWS V12.07,2013-02-04 01:20:00,
2013-02-03 17:25:00,64.8,45.7,29.97,WSW,242,0.0,0.0,50,0.00,,---,0.00,VWS V12.07,2013-02-04 01:25:00,
2013-02-03 17:30:00,64.5,46.0,29.97,WSW,242,0.0,1.0,51,0.00,,---,0.00,VWS V12.07,2013-02-04 01:30:00,
2013-02-03 17:40:00,63.7,45.8,29.98,WSW,242,0.0,0.0,52,0.00,,---,0.00,VWS V12.07,2013-02-04 01:40:00,
2013-02-03 17:50:00,62.9,46.0,29.98,WSW,243,0.0,0.0,54,0.00,,---,0.00,VWS V12.07,2013-02-04 01:50:00,
2013-02-03 18:00:00,61.8,45.5,29.98,WSW,243,0.0,0.0,55,0.00,,---,0.00,VWS V12.07,2013-02-04 02:00:00,
2013-02-03 18:05:00,61.3,45.5,29.98,WSW,240,0.0,1.0,56,0.00,,---,0.00,VWS V12.07,2013-02-04 02:05:00,
2013-02-03 18:10:00,60.9,45.6,29.98,WSW,240,0.0,0.0,57,0.00,,---,0.00,VWS V12.07,2013-02-04 02:10:00,
2013-02-03 18:15:00,60.7,45.4,29.98,WSW,240,0.0,0.0,57,0.00,,---,0.00,VWS V12.07,2013-02-04 02:15:00,
2013-02-03 18:25:00,60.2,45.4,29.98,WSW,240,0.0,0.0,58,0.00,,---,0.00,VWS V12.07,2013-02-04 02:25:00,
2013-02-03 18:30:00,59.9,45.1,29.98,WSW,240,0.0,0.0,58,0.00,,---,0.00,VWS V12.07,2013-02-04 02:30:00,
2013-02-03 18:35:00,59.8,45.0,29.98,WSW,240,0.0,0.0,58,0.00,,---,0.00,VWS V12.07,2013-02-04 02:35:00,
2013-02-03 18:40:00,59.6,45.3,29.99,WSW,240,0.0,0.0,59,0.00,,---,0.00,VWS V12.07,2013-02-04 02:40:00,
2013-02-03 18:50:00,59.0,45.2,29.99,WSW,240,0.0,0.0,60,0.00,,---,0.00,VWS V12.07,2013-02-04 02:50:00,
2013-02-03 18:55:00,58.9,45.1,30.00,WSW,240,0.0,1.0,60,0.00,,---,0.00,VWS V12.07,2013-02-04 02:55:00,
2013-02-03 19:00:00,58.6,45.2,30.00,WSW,240,0.0,0.0,61,0.00,,---,0.00,VWS V12.07,2013-02-04 03:00:00,
2013-02-03 19:05:00,58.3,44.9,30.00,WSW,240,0.0,1.0,61,0.00,,---,0.00,VWS V12.07,2013-02-04 03:05:00,
2013-02-03 19:15:00,57.6,44.7,29.99,WSW,240,0.0,0.0,62,0.00,,---,0.00,VWS V12.07,2013-02-04 03:15:00,
2013-02-03 19:20:00,57.3,44.4,29.99,WSW,240,0.0,0.0,62,0.00,,---,0.00,VWS V12.07,2013-02-04 03:20:00,
2013-02-03 19:25:00,57.2,44.3,30.00,WSW,240,0.0,0.0,62,0.00,,---,0.00,VWS V12.07,2013-02-04 03:25:00,
2013-02-03 19:35:00,56.6,44.2,30.00,WSW,240,0.0,0.0,63,0.00,,---,0.00,VWS V12.07,2013-02-04 03:35:00,
2013-02-03 19:40:00,56.5,44.5,30.00,WSW,240,0.0,0.0,64,0.00,,---,0.00,VWS V12.07,2013-02-04 03:40:00,
2013-02-03 19:45:00,56.2,44.2,30.00,WSW,240,0.0,0.0,64,0.00,,---,0.00,VWS V12.07,2013-02-04 03:45:00,
2013-02-03 19:55:00,55.7,44.1,30.00,WSW,240,0.0,0.0,65,0.00,,---,0.00,VWS V12.07,2013-02-04 03:55:00,
2013-02-03 20:05:00,55.3,44.2,30.00,WSW,240,0.0,0.0,66,0.00,,---,0.00,VWS V12.07,2013-02-04 04:05:00,
2013-02-03 20:10:00,55.1,44.0,30.01,WSW,240,0.0,0.0,66,0.00,,---,0.00,VWS V12.07,2013-02-04 04:10:00,
2013-02-03 20:15:00,54.8,44.1,30.01,WSW,240,0.0,0.0,67,0.00,,---,0.00,VWS V12.07,2013-02-04 04:15:00,
2013-02-03 20:20:00,54.7,44.0,30.01,WSW,240,0.0,0.0,67,0.00,,---,0.00,VWS V12.07,2013-02-04 04:20:00,
2013-02-03 20:25:00,54.5,44.2,30.01,WSW,240,0.0,0.0,68,0.00,,---,0.00,VWS V12.07,2013-02-04 04:25:00,
2013-02-03 20:35:00,54.1,43.8,30.01,WSW,240,0.0,0.0,68,0.00,,---,0.00,VWS V12.07,2013-02-04 04:35:00,
2013-02-03 20:40:00,53.9,43.6,30.01,WSW,240,0.0,0.0,68,0.00,,---,0.00,VWS V12.07,2013-02-04 04:40:00,
2013-02-03 20:45:00,53.6,43.7,30.01,WSW,240,0.0,0.0,69,0.00,,---,0.00,VWS V12.07,2013-02-04 04:45:00,
2013-02-03 20:50:00,53.5,43.6,30.01,WSW,240,0.0,0.0,69,0.00,,---,0.00,VWS V12.07,2013-02-04 04:50:00,
2013-02-03 20:55:00,53.3,43.4,30.01,WSW,240,0.0,0.0,69,0.00,,---,0.00,VWS V12.07,2013-02-04 04:55:00,
2013-02-03 21:05:00,52.9,43.0,30.01,WSW,240,0.0,0.0,69,0.00,,---,0.00,VWS V12.07,2013-02-04 05:05:00,
2013-02-03 21:10:00,52.6,42.7,30.01,WSW,240,0.0,0.0,69,0.00,,---,0.00,VWS V12.07,2013-02-04 05:10:00,
2013-02-03 21:15:00,52.5,43.0,30.01,WSW,240,0.0,0.0,70,0.00,,---,0.00,VWS V12.07,2013-02-04 05:15:00,
2013-02-03 21:20:00,52.3,43.2,30.01,WSW,240,0.0,0.0,71,0.00,,---,0.00,VWS V12.07,2013-02-04 05:20:00,
2013-02-03 21:25:00,52.2,43.1,30.02,WSW,240,0.0,0.0,71,0.00,,---,0.00,VWS V12.07,2013-02-04 05:25:00,
2013-02-03 21:30:00,52.0,43.3,30.02,WSW,240,0.0,0.0,72,0.00,,---,0.00,VWS V12.07,2013-02-04 05:30:00,
2013-02-03 21:35:00,51.7,43.0,30.02,WSW,240,0.0,0.0,72,0.00,,---,0.00,VWS V12.07,2013-02-04 05:35:00,
2013-02-03 21:40:00,51.6,43.2,30.02,WSW,240,0.0,0.0,73,0.00,,---,0.00,VWS V12.07,2013-02-04 05:40:00,
2013-02-03 21:45:00,51.4,43.0,30.02,WSW,240,0.0,1.0,73,0.00,,---,0.00,VWS V12.07,2013-02-04 05:45:00,
2013-02-03 21:55:00,51.0,43.0,30.02,WSW,240,0.0,1.0,74,0.00,,---,0.00,VWS V12.07,2013-02-04 05:55:00,
2013-02-03 22:00:00,50.8,42.8,30.02,WSW,240,0.0,1.0,74,0.00,,---,0.00,VWS V12.07,2013-02-04 06:00:00,
2013-02-03 22:05:00,50.7,42.7,30.02,WSW,240,0.0,0.0,74,0.00,,---,0.00,VWS V12.07,2013-02-04 06:05:00,
2013-02-03 22:10:00,50.5,42.5,30.02,WSW,240,0.0,0.0,74,0.00,,---,0.00,VWS V12.07,2013-02-04 06:10:00,
2013-02-03 22:20:00,50.1,42.5,30.02,WSW,240,0.0,0.0,75,0.00,,---,0.00,VWS V12.07,2013-02-04 06:20:00,
2013-02-03 22:25:00,50.1,42.5,30.02,WSW,240,0.0,1.0,75,0.00,,---,0.00,VWS V12.07,2013-02-04 06:25:00,
2013-02-03 22:30:00,49.9,42.7,30.02,WSW,240,0.0,1.0,76,0.00,,---,0.00,VWS V12.07,2013-02-04 06:30:00,
2013-02-03 22:40:00,49.6,42.4,30.02,WSW,240,0.0,0.0,76,0.00,,---,0.00,VWS V12.07,2013-02-04 06:40:00,
2013-02-03 22:45:00,49.5,42.3,30.02,WSW,240,0.0,0.0,76,0.00,,---,0.00,VWS V12.07,2013-02-04 06:45:00,
2013-02-03 22:50:00,49.4,42.5,30.02,WSW,240,0.0,0.0,77,0.00,,---,0.00,VWS V12.07,2013-02-04 06:50:00,
2013-02-03 22:55:00,49.1,42.2,30.01,WSW,240,0.0,0.0,77,0.00,,---,0.00,VWS V12.07,2013-02-04 06:55:00,
2013-02-03 23:05:00,48.8,41.9,30.01,WSW,240,0.0,0.0,77,0.00,,---,0.00,VWS V12.07,2013-02-04 07:05:00,
2013-02-03 23:10:00,48.8,41.9,30.01,WSW,240,0.0,0.0,77,0.00,,---,0.00,VWS V12.07,2013-02-04 07:10:00,
2013-02-03 23:20:00,48.5,42.0,30.01,WSW,240,0.0,0.0,78,0.00,,---,0.00,VWS V12.07,2013-02-04 07:20:00,
2013-02-03 23:25:00,48.3,41.8,30.01,WSW,240,0.0,0.0,78,0.00,,---,0.00,VWS V12.07,2013-02-04 07:25:00,
2013-02-03 23:35:00,48.0,41.5,30.01,WSW,240,0.0,0.0,78,0.00,,---,0.00,VWS V12.07,2013-02-04 07:35:00,
2013-02-03 23:40:00,47.7,41.2,30.01,WSW,240,0.0,0.0,78,0.00,,---,0.00,VWS V12.07,2013-02-04 07:40:00,
2013-02-03 23:45:00,47.6,41.1,30.01,WSW,240,0.0,0.0,78,0.00,,---,0.00,VWS V12.07,2013-02-04 07:45:00,
2013-02-03 23:50:00,47.6,41.1,30.01,WSW,240,0.0,0.0,78,0.00,,---,0.00,VWS V12.07,2013-02-04 07:50:00,